createdAt,value
2023-04-01T00:01:30.508Z,76.43
2023-04-01T00:04:34.861Z,76.37
2023-04-01T00:07:40.712Z,77.31
2023-04-01T00:10:43.457Z,78.48
2023-04-01T00:13:46.651Z,79.16
2023-04-01T00:16:49.385Z,78.49
2023-04-01T00:19:52.143Z,77.55
2023-04-01T00:22:55.333Z,77.69
2023-04-01T00:26:01.289Z,77.86
2023-04-01T00:29:04.099Z,77.73
2023-04-01T00:32:07.179Z,77.69
2023-04-01T00:35:10.663Z,78.53
2023-04-01T00:38:13.927Z,78.27
2023-04-01T00:41:18.329Z,81.93
2023-04-01T00:44:24.581Z,79.64
2023-04-01T00:47:28.248Z,78.86
2023-04-01T00:50:32.293Z,80.29
2023-04-01T00:53:39.287Z,79.23
2023-04-01T00:56:46.819Z,80.31
2023-04-01T00:59:51.316Z,79.57
2023-04-01T01:02:54.246Z,79.13
2023-04-01T01:06:40.409Z,82.52
2023-04-01T01:09:58.143Z,82.00
2023-04-01T01:13:10.151Z,82.29
2023-04-01T01:16:25.414Z,81.57
2023-04-01T01:20:03.075Z,83.46
2023-04-01T01:23:43.470Z,82.90
2023-04-01T01:26:46.108Z,82.56
2023-04-01T01:29:54.847Z,82.34
2023-04-01T01:33:26.846Z,82.17
2023-04-01T01:36:35.886Z,79.90
2023-04-01T01:39:44.485Z,79.45
2023-04-01T01:42:53.707Z,78.00
2023-04-01T01:45:59.480Z,77.48
2023-04-01T01:49:04.634Z,76.42
2023-04-01T01:52:07.442Z,76.12
2023-04-01T01:55:30.875Z,76.05
2023-04-01T01:58:41.691Z,75.30
2023-04-01T02:01:59.500Z,75.81
2023-04-01T02:05:03.133Z,74.95
2023-04-01T02:08:29.306Z,74.47
2023-04-01T02:11:36.504Z,74.52
2023-04-01T02:14:53.945Z,74.72
2023-04-01T02:17:58.272Z,74.58
2023-04-01T02:21:02.018Z,74.75
2023-04-01T02:24:08.009Z,74.27
2023-04-01T02:27:12.307Z,74.04
2023-04-01T02:30:16.838Z,74.82
2023-04-01T02:33:20.976Z,74.55
2023-04-01T02:36:23.708Z,73.92
2023-04-01T02:39:27.662Z,73.80
2023-04-01T02:42:30.435Z,74.13
2023-04-01T02:45:33.286Z,74.24
2023-04-01T02:48:36.127Z,74.09
2023-04-01T02:51:38.830Z,74.09
2023-04-01T02:54:42.188Z,74.58
2023-04-01T02:57:45.216Z,74.79
2023-04-01T03:00:47.997Z,74.65
2023-04-01T03:03:50.802Z,74.85
2023-04-01T03:06:53.589Z,75.03
2023-04-01T03:09:56.363Z,75.10
2023-04-01T03:12:59.093Z,75.42
2023-04-01T03:16:02.687Z,75.53
2023-04-01T03:19:05.396Z,75.96
2023-04-01T03:22:09.006Z,75.25
2023-04-01T03:25:12.319Z,75.62
2023-04-01T03:28:15.321Z,75.26
2023-04-01T03:31:18.164Z,75.06
2023-04-01T03:34:27.414Z,75.74
2023-04-01T03:37:30.254Z,75.09
2023-04-01T03:40:34.392Z,74.85
2023-04-01T03:43:37.450Z,75.27
2023-04-01T03:46:41.501Z,75.24
2023-04-01T03:49:44.748Z,75.25
2023-04-01T03:52:47.460Z,75.23
2023-04-01T03:55:52.601Z,74.95
2023-04-01T03:58:55.358Z,75.20
2023-04-01T04:01:58.265Z,75.49
2023-04-01T04:05:01.221Z,75.21
2023-04-01T04:08:05.373Z,75.39
2023-04-01T04:11:10.383Z,75.28
2023-04-01T04:14:16.444Z,75.40
2023-04-01T04:17:19.801Z,75.28
2023-04-01T04:20:22.925Z,75.79
2023-04-01T04:23:25.789Z,75.45
2023-04-01T04:26:28.685Z,75.61
2023-04-01T04:29:35.799Z,75.67
2023-04-01T04:32:38.738Z,75.05
2023-04-01T04:35:42.082Z,75.29
2023-04-01T04:38:45.002Z,74.99
2023-04-01T04:41:47.923Z,74.57
2023-04-01T04:44:51.131Z,74.79
2023-04-01T04:47:54.117Z,74.68
2023-04-01T04:50:57.002Z,74.43
2023-04-01T04:54:00.227Z,74.80
2023-04-01T04:57:16.873Z,74.04
2023-04-01T05:00:26.891Z,73.87
2023-04-01T05:03:34.129Z,73.55
2023-04-01T05:06:37.200Z,73.32
2023-04-01T05:09:40.929Z,73.46
2023-04-01T05:12:43.808Z,73.51
2023-04-01T05:15:51.260Z,73.88
2023-04-01T05:18:54.083Z,72.92
2023-04-01T05:21:57.248Z,73.53
2023-04-01T05:25:00.145Z,72.78
2023-04-01T05:28:05.791Z,72.69
2023-04-01T05:31:09.438Z,72.42
2023-04-01T05:34:16.991Z,73.22
2023-04-01T05:37:20.977Z,73.21
2023-04-01T05:40:24.441Z,73.17
2023-04-01T05:43:27.261Z,72.98
2023-04-01T05:46:33.490Z,73.19
2023-04-01T05:49:54.193Z,73.73
2023-04-01T05:52:57.009Z,73.85
2023-04-01T05:56:04.638Z,74.45
2023-04-01T05:59:12.661Z,73.72
2023-04-01T06:02:18.828Z,73.78
2023-04-01T06:05:24.927Z,73.90
2023-04-01T06:08:28.251Z,73.12
2023-04-01T06:11:46.600Z,72.95
2023-04-01T06:14:58.616Z,73.36
2023-04-01T06:18:32.525Z,73.40
2023-04-01T06:21:57.183Z,73.39
2023-04-01T06:25:50.342Z,73.58
2023-04-01T06:29:05.889Z,74.82
2023-04-01T06:32:27.060Z,74.13
2023-04-01T06:35:55.388Z,73.08
2023-04-01T06:39:28.957Z,74.89
2023-04-01T06:42:37.964Z,73.79
2023-04-01T06:46:08.484Z,74.52
2023-04-01T06:50:27.781Z,74.34
2023-04-01T06:54:04.985Z,75.15
2023-04-01T06:57:56.852Z,74.49
2023-04-01T07:01:02.660Z,74.28
2023-04-01T07:04:11.953Z,74.57
2023-04-01T07:07:17.955Z,75.47
2023-04-01T07:10:44.306Z,75.03
2023-04-01T07:14:30.832Z,74.12
2023-04-01T07:17:35.570Z,74.97
2023-04-01T07:20:39.675Z,75.08
2023-04-01T07:23:45.695Z,76.17
2023-04-01T07:27:16.070Z,75.87
2023-04-01T07:30:23.147Z,76.59
2023-04-01T07:33:51.264Z,77.26
2023-04-01T07:37:07.554Z,77.82
2023-04-01T07:40:40.205Z,77.99
2023-04-01T07:44:13.202Z,77.15
2023-04-01T07:47:57.987Z,77.34
2023-04-01T07:51:24.557Z,75.89
2023-04-01T07:54:36.895Z,74.73
2023-04-01T07:57:43.495Z,75.50
2023-04-01T08:01:05.111Z,75.41
2023-04-01T08:04:15.576Z,74.52
2023-04-01T08:07:27.544Z,74.17
2023-04-01T08:11:12.194Z,73.96
2023-04-01T08:14:49.993Z,74.22
2023-04-01T08:18:15.304Z,74.55
2023-04-01T08:21:37.035Z,75.06
2023-04-01T08:24:48.164Z,75.37
2023-04-01T08:28:29.847Z,74.64
2023-04-01T08:32:01.605Z,75.26
2023-04-01T08:35:19.516Z,75.30
2023-04-01T08:38:26.974Z,73.73
2023-04-01T08:41:57.049Z,73.98
2023-04-01T08:45:26.161Z,74.25
2023-04-01T08:48:50.567Z,74.11
2023-04-01T08:52:22.746Z,73.68
2023-04-01T08:56:03.337Z,74.31
2023-04-01T08:59:31.482Z,74.69
2023-04-01T09:02:51.913Z,74.79
2023-04-01T09:06:27.170Z,75.27
2023-04-01T09:10:10.762Z,73.67
2023-04-01T09:13:22.926Z,74.62
2023-04-01T09:16:53.497Z,73.95
2023-04-01T09:20:05.622Z,74.98
2023-04-01T09:23:29.673Z,75.19
2023-04-01T09:26:51.190Z,73.04
2023-04-01T09:30:11.035Z,75.59
2023-04-01T09:33:38.642Z,72.98
2023-04-01T09:37:02.586Z,73.05
2023-04-01T09:40:25.198Z,73.79
2023-04-01T09:44:03.113Z,73.41
2023-04-01T09:47:31.868Z,72.30
2023-04-01T09:50:38.152Z,69.93
2023-04-01T09:54:07.420Z,68.18
2023-04-01T09:57:38.750Z,68.43
2023-04-01T10:01:18.552Z,68.35
2023-04-01T10:04:48.611Z,67.60
2023-04-01T10:07:58.214Z,68.16
2023-04-01T10:11:26.564Z,68.23
2023-04-01T10:14:38.662Z,68.18
2023-04-01T10:18:06.352Z,68.30
2023-04-01T10:21:38.628Z,67.99
2023-04-01T10:25:08.874Z,67.55
2023-04-01T10:28:33.941Z,68.23
2023-04-01T10:32:30.201Z,69.46
2023-04-01T10:35:45.379Z,67.87
2023-04-01T10:39:18.917Z,67.29
2023-04-01T10:42:50.960Z,65.99
2023-04-01T10:46:38.539Z,66.46
2023-04-01T10:50:06.978Z,65.52
2023-04-01T10:53:31.563Z,63.96
2023-04-01T10:57:22.735Z,64.48
2023-04-01T11:00:45.642Z,64.91
2023-04-01T11:04:44.146Z,65.64
2023-04-01T11:08:40.454Z,67.56
2023-04-01T11:12:01.884Z,66.67
2023-04-01T11:15:20.834Z,65.47
2023-04-01T11:18:32.534Z,65.65
2023-04-01T11:22:23.157Z,65.79
2023-04-01T11:26:18.657Z,65.15
2023-04-01T11:30:09.250Z,64.81
2023-04-01T11:33:27.622Z,64.38
2023-04-01T11:36:50.333Z,64.76
2023-04-01T11:40:07.472Z,65.40
2023-04-01T11:43:47.916Z,63.60
2023-04-01T11:47:15.721Z,63.04
2023-04-01T11:50:40.724Z,64.49
2023-04-01T11:54:14.112Z,62.62
2023-04-01T11:57:54.260Z,62.62
2023-04-01T12:01:24.492Z,61.80
2023-04-01T12:04:46.843Z,63.65
2023-04-01T12:08:24.399Z,61.74
2023-04-01T12:11:43.081Z,61.28
2023-04-01T12:15:24.794Z,61.97
2023-04-01T12:18:46.332Z,61.40
2023-04-01T12:22:10.916Z,62.85
2023-04-01T12:25:51.910Z,61.39
2023-04-01T12:29:11.081Z,60.40
2023-04-01T12:32:47.425Z,59.09
2023-04-01T12:36:10.130Z,58.80
2023-04-01T12:39:37.465Z,59.89
2023-04-01T12:43:05.376Z,62.54
2023-04-01T12:46:08.096Z,62.79
2023-04-01T12:49:46.952Z,61.88
2023-04-01T12:53:11.743Z,59.48
2023-04-01T12:56:31.839Z,57.63
2023-04-01T12:59:40.796Z,56.69
2023-04-01T13:03:15.709Z,57.00
2023-04-01T13:06:42.640Z,56.03
2023-04-01T13:10:09.687Z,57.29
2023-04-01T13:13:38.683Z,56.66
2023-04-01T13:16:47.043Z,55.66
2023-04-01T13:20:06.251Z,54.85
2023-04-01T13:23:24.548Z,58.37
2023-04-01T13:26:58.812Z,58.08
2023-04-01T13:30:23.680Z,58.58
2023-04-01T13:33:43.048Z,57.73
2023-04-01T13:36:58.108Z,57.67
2023-04-01T13:40:15.046Z,59.47
2023-04-01T13:43:21.143Z,60.20
2023-04-01T13:46:42.000Z,59.13
2023-04-01T13:49:57.209Z,61.88
2023-04-01T13:53:47.079Z,64.16
2023-04-01T13:57:00.031Z,63.26
2023-04-01T14:00:24.795Z,64.33
2023-04-01T14:03:27.893Z,65.86
2023-04-01T14:06:39.112Z,66.35
2023-04-01T14:10:10.816Z,66.31
2023-04-01T14:13:24.591Z,66.17
2023-04-01T14:16:42.588Z,66.30
2023-04-01T14:20:16.726Z,67.14
2023-04-01T14:23:48.859Z,66.92
2023-04-01T14:26:57.951Z,66.50
2023-04-01T14:30:22.751Z,66.86
2023-04-01T14:33:40.818Z,66.05
2023-04-01T14:36:47.933Z,65.43
2023-04-01T14:39:53.562Z,64.89
2023-04-01T14:43:23.147Z,63.48
2023-04-01T14:46:31.867Z,62.23
2023-04-01T14:49:40.869Z,63.48
2023-04-01T14:53:06.291Z,63.19
2023-04-01T14:56:09.276Z,63.36
2023-04-01T14:59:18.939Z,63.59
2023-04-01T15:02:40.164Z,62.69
2023-04-01T15:06:18.981Z,62.40
2023-04-01T15:09:34.476Z,63.43
2023-04-01T15:12:46.089Z,64.05
2023-04-01T15:16:33.686Z,64.58
2023-04-01T15:20:07.817Z,65.69
2023-04-01T15:23:29.402Z,65.75
2023-04-01T15:26:44.845Z,66.77
2023-04-01T15:30:15.632Z,69.08
2023-04-01T15:33:41.913Z,72.31
2023-04-01T15:36:53.918Z,72.17
2023-04-01T15:40:09.179Z,72.39
2023-04-01T15:43:23.742Z,71.71
2023-04-01T15:46:42.378Z,71.03
2023-04-01T15:49:52.236Z,71.37
2023-04-01T15:53:27.302Z,70.97
2023-04-01T15:56:53.144Z,70.65
2023-04-01T16:00:17.736Z,70.14
2023-04-01T16:03:38.960Z,70.71
2023-04-01T16:07:00.740Z,70.60
2023-04-01T16:10:51.535Z,71.21
2023-04-01T16:14:16.028Z,71.15
2023-04-01T16:17:44.928Z,70.85
2023-04-01T16:21:07.100Z,71.04
2023-04-01T16:24:37.530Z,70.36
2023-04-01T16:28:11.070Z,70.24
2023-04-01T16:31:38.443Z,69.71
2023-04-01T16:35:07.491Z,69.64
2023-04-01T16:38:16.430Z,68.92
2023-04-01T16:41:27.489Z,68.47
2023-04-01T16:44:30.895Z,68.26
2023-04-01T16:47:41.781Z,68.89
2023-04-01T16:50:59.934Z,68.81
2023-04-01T16:54:21.206Z,68.92
2023-04-01T16:57:45.790Z,68.72
2023-04-01T17:01:05.951Z,68.68
2023-04-01T17:04:40.209Z,69.74
2023-04-01T17:08:02.179Z,69.31
2023-04-01T17:11:20.407Z,69.52
2023-04-01T17:14:32.204Z,69.41
2023-04-01T17:17:51.031Z,70.28
2023-04-01T17:20:57.133Z,71.34
2023-04-01T17:24:02.904Z,71.52
2023-04-01T17:27:29.976Z,72.03
2023-04-01T17:31:01.811Z,72.01
2023-04-01T17:34:05.276Z,71.54
2023-04-01T17:37:31.527Z,71.88
2023-04-01T17:41:13.197Z,71.53
2023-04-01T17:44:25.254Z,72.67
2023-04-01T17:47:31.419Z,72.16
2023-04-01T17:51:04.595Z,72.97
2023-04-01T17:54:41.182Z,72.54
2023-04-01T17:58:00.429Z,73.05
2023-04-01T18:01:35.539Z,72.59
2023-04-01T18:04:43.817Z,72.83
2023-04-01T18:08:08.696Z,73.43
2023-04-01T18:11:30.266Z,73.77
2023-04-01T18:14:41.894Z,73.44
2023-04-01T18:17:57.267Z,74.50
2023-04-01T18:21:08.869Z,73.97
2023-04-01T18:24:33.504Z,73.64
2023-04-01T18:27:42.056Z,73.74
2023-04-01T18:30:53.840Z,74.83
2023-04-01T18:34:19.674Z,74.94
2023-04-01T18:37:33.087Z,75.25
2023-04-01T18:40:39.488Z,75.10
2023-04-01T18:44:21.185Z,75.59
2023-04-01T18:47:47.032Z,76.03
2023-04-01T18:50:53.019Z,76.21
2023-04-01T18:54:03.223Z,76.19
2023-04-01T18:57:17.215Z,76.46
2023-04-01T19:00:24.055Z,76.61
2023-04-01T19:03:34.658Z,75.31
2023-04-01T19:06:50.489Z,74.85
2023-04-01T19:09:53.767Z,74.92
2023-04-01T19:13:19.860Z,74.80
2023-04-01T19:16:37.941Z,74.61
2023-04-01T19:19:56.353Z,75.20
2023-04-01T19:23:11.164Z,75.68
2023-04-01T19:26:56.367Z,75.28
2023-04-01T19:30:12.836Z,75.04
2023-04-01T19:33:24.581Z,74.75
2023-04-01T19:36:48.623Z,74.94
2023-04-01T19:40:19.586Z,74.48
2023-04-01T19:43:47.176Z,74.91
2023-04-01T19:47:20.196Z,75.73
2023-04-01T19:50:44.219Z,76.67
2023-04-01T19:54:22.539Z,77.08
2023-04-01T19:57:46.093Z,76.59
2023-04-01T20:00:55.516Z,76.11
2023-04-01T20:04:10.438Z,76.58
2023-04-01T20:07:19.485Z,76.16
2023-04-01T20:11:00.364Z,76.23
2023-04-01T20:14:22.567Z,76.47
2023-04-01T20:17:27.965Z,76.25
2023-04-01T20:20:31.622Z,76.63
2023-04-01T20:23:51.180Z,75.85
2023-04-01T20:27:31.966Z,76.63
2023-04-01T20:30:34.586Z,76.61
2023-04-01T20:34:13.858Z,77.46
2023-04-01T20:37:19.443Z,76.76
2023-04-01T20:40:35.800Z,77.42
2023-04-01T20:44:06.917Z,76.59
2023-04-01T20:47:37.345Z,77.56
2023-04-01T20:50:51.250Z,77.22
2023-04-01T20:54:23.285Z,78.39
2023-04-01T20:57:29.453Z,78.40
2023-04-01T21:00:39.098Z,78.03
2023-04-01T21:03:51.224Z,79.01
2023-04-01T21:07:07.883Z,78.23
2023-04-01T21:10:35.278Z,77.60
2023-04-01T21:13:45.086Z,78.30
2023-04-01T21:17:14.419Z,79.47
2023-04-01T21:20:33.423Z,79.58
2023-04-01T21:23:48.498Z,79.87
2023-04-01T21:27:00.956Z,79.99
2023-04-01T21:30:26.112Z,83.79
2023-04-01T21:33:38.106Z,84.39
2023-04-01T21:36:46.659Z,86.26
2023-04-01T21:40:17.124Z,82.53
2023-04-01T21:43:45.922Z,82.58
2023-04-01T21:47:16.688Z,83.33
2023-04-01T21:50:46.509Z,83.43
2023-04-01T21:54:27.631Z,83.48
2023-04-01T21:58:11.872Z,81.70
2023-04-01T22:01:36.285Z,82.62
2023-04-01T22:04:54.250Z,82.30
2023-04-01T22:08:24.963Z,83.05
2023-04-01T22:12:05.954Z,81.65
2023-04-01T22:15:30.868Z,82.21
2023-04-01T22:18:49.740Z,81.81
2023-04-01T22:22:13.979Z,82.39
2023-04-01T22:25:25.375Z,82.51
2023-04-01T22:28:40.477Z,82.03
2023-04-01T22:31:48.800Z,81.42
2023-04-01T22:35:02.117Z,81.34
2023-04-01T22:38:10.682Z,81.63
2023-04-01T22:41:52.770Z,82.06
2023-04-01T22:45:22.349Z,82.63
2023-04-01T22:48:46.951Z,82.75
2023-04-01T22:52:11.355Z,85.09
2023-04-01T22:55:18.535Z,83.65
2023-04-01T22:58:29.997Z,85.22
2023-04-01T23:01:38.513Z,84.32
2023-04-01T23:04:44.082Z,85.71
2023-04-01T23:08:20.988Z,85.08
2023-04-01T23:11:34.704Z,85.58
2023-04-01T23:14:56.725Z,88.93
2023-04-01T23:18:10.783Z,90.95
2023-04-01T23:21:19.490Z,92.47
2023-04-01T23:24:31.131Z,92.92
2023-04-01T23:28:15.910Z,93.61
2023-04-01T23:31:36.776Z,94.37
2023-04-01T23:34:39.523Z,93.17
2023-04-01T23:37:42.377Z,92.18
2023-04-01T23:40:45.998Z,91.80
2023-04-01T23:43:56.167Z,91.25
2023-04-01T23:46:59.904Z,91.15
2023-04-01T23:50:12.181Z,90.34
2023-04-01T23:53:25.121Z,90.17
2023-04-01T23:56:44.095Z,89.26
